• Join FlightAware (Why Join?)
  • Login
  • US Flag 
09:33AM EST


 

Airport Tracker/Info


-or-


 

Live Flight TrackerFlight Track Log ✈ N102WY ✈ 03-Mar-2014 ✈ KPNA - KCYS

Flight Track Log - Related Links

Times and Time Zones

All times are in EST time to prevent confusion due to time zone crossing. See the N102WY flight status page for this flight to view local times or setup timezone preferences in your user account.

Time Position Orientation Groundspeed Altitude Reporting Facility
EST Latitude Longitude Course Direction KTS MPH feet Rate Location/Type
05:47PM 42.7444 -109.6914 114° Southeast 229 264 13,300  Level Salt Lake Center
05:48PM 42.7075 -109.5706 113° Southeast 284 327 17,100 3,484 Climbing Salt Lake Center
05:49PM 42.6733 -109.4511 111° Southeast 341 392 20,500 3,268 Climbing Salt Lake Center
05:51PM 42.6314 -109.3086 112° Southeast 358 412 23,800 2,878 Climbing Salt Lake Center
05:52PM 42.5911 -109.1781 113° Southeast 380 437 26,400 2,468 Climbing Salt Lake Center
05:53PM 42.5848 -109.1087 114° Southeast  Level Estimated
05:53PM 42.5500 -109.0428 112° Southeast 398 458 28,900  Level Salt Lake Center
05:54PM 42.5003 -108.8792 112° Southeast 415 478 31,800 2,000 Climbing Salt Lake Center
05:55PM 42.4564 -108.7350 112° Southeast 426 490 33,000 585 Climbing Salt Lake Center
05:56PM 42.4042 -108.5667 113° Southeast 432 497 33,000 1,016 Level Salt Lake Center
05:57PM 42.3600 -108.4219 112° Southeast 434 499 35,100 1,854 Climbing Salt Lake Center
05:58PM 42.3161 -108.2825 113° Southeast 424 488 36,800 927 Climbing Salt Lake Center
05:59PM 42.2653 -108.1211 113° Southeast 417 480 37,000 97 Climbing Salt Lake Center
06:00PM 42.2225 -107.9856 113° Southeast 411 473 37,000  Level Salt Lake Center
06:01PM 42.1728 -107.8286 113° Southeast 408 470 37,000  Level Salt Lake Center
06:02PM 42.1294 -107.6958 114° Southeast 405 466 37,000  Level Salt Lake Center
06:03PM 42.0872 -107.5608 113° Southeast 405 466 37,000  Level Denver Center
06:04PM 42.0350 -107.4006 114° Southeast 413 475 37,000 -145 Level Denver Center
06:05PM 41.9906 -107.2628 113° Southeast 416 479 36,700 -774 Descending Denver Center
06:06PM 41.9342 -107.0950 114° Southeast 436 502 35,400 -1,113 Descending Denver Center
06:07PM 41.8847 -106.9422 113° Southeast 461 531 34,400 -968 Descending Denver Center
06:08PM 41.8339 -106.7894 114° Southeast 469 540 33,400 -1,113 Descending Denver Center
06:09PM 41.7758 -106.6125 114° Southeast 467 537 32,100 -1,171 Descending Denver Center
06:10PM 41.7214 -106.4483 114° Southeast 458 527 31,000 -976 Descending Denver Center
06:11PM 41.6722 -106.3047 115° Southeast 450 518 30,100 -1,016 Descending Denver Center
06:12PM 41.6153 -106.1372 114° Southeast 446 513 28,900 -1,161 Descending Denver Center
06:13PM 41.5700 -106.0039 114° Southeast 418 481 27,700 -1,258 Descending Denver Center
06:14PM 41.5169 -105.8494 115° Southeast 414 476 26,300 -1,694 Descending Denver Center
06:15PM 41.4717 -105.7153 114° Southeast 413 475 24,200 -2,129 Descending Denver Center
06:16PM 41.4261 -105.5822 115° Southeast 414 476 21,900 -2,390 Descending Denver Center
06:17PM 41.3819 -105.4539 115° Southeast 407 468 19,300 -2,878 Descending Denver Center
06:18PM 41.3317 -105.3147 116° Southeast 384 442 16,000 -2,806 Descending Denver Center
06:19PM 41.2867 -105.1831 114° Southeast 360 414 13,500 -2,419 Descending Denver Center
06:21PM 41.2295 -105.0290 112° Southeast  Level FlightAware Approximate
06:28PM 41.1556 -104.8105 116° Southeast  Level Estimated
06:29PM 41.1556 -104.8105 116° Southeast  Level Estimated
06:30PM 41.1556 -104.8105 116° Southeast  Level Estimated
06:31PM 41.1556 -104.8105 116° Southeast  Level Estimated
06:32PM 41.1556 -104.8105 116° Southeast  Level Estimated
06:33PM 41.1556 -104.8105 116° Southeast  Level Estimated